sensor_id;sensor_type;location;lat;lon;timestamp;pressure;altitude;pressure_sealevel;temperature;humidity
65666;BME280;52365;47.464;18.976;2022-12-20T00:00:32;101615.16;;;-0.17;77.55
65666;BME280;52365;47.464;18.976;2022-12-20T00:01:11;101612.81;;;-0.07;77.31
65666;BME280;52365;47.464;18.976;2022-12-20T00:01:47;101614.13;;;-0.01;77.01
65666;BME280;52365;47.464;18.976;2022-12-20T00:02:23;101609.44;;;-0.32;77.18
65666;BME280;52365;47.464;18.976;2022-12-20T00:02:59;101609.69;;;-0.61;77.50
65666;BME280;52365;47.464;18.976;2022-12-20T00:03:36;101622.25;;;-0.58;78.06
65666;BME280;52365;47.464;18.976;2022-12-20T00:04:12;101612.00;;;-0.47;78.32
65666;BME280;52365;47.464;18.976;2022-12-20T00:04:48;101622.25;;;-0.58;78.25
65666;BME280;52365;47.464;18.976;2022-12-20T00:05:24;101620.25;;;-0.49;78.47
65666;BME280;52365;47.464;18.976;2022-12-20T00:06:00;101619.78;;;-0.27;78.20
65666;BME280;52365;47.464;18.976;2022-12-20T00:06:37;101629.66;;;-0.39;77.95
65666;BME280;52365;47.464;18.976;2022-12-20T00:07:13;101624.25;;;-0.43;78.09
65666;BME280;52365;47.464;18.976;2022-12-20T00:07:49;101624.03;;;-0.50;78.22
65666;BME280;52365;47.464;18.976;2022-12-20T00:08:25;101623.13;;;-0.54;78.32
65666;BME280;52365;47.464;18.976;2022-12-20T00:09:04;101625.56;;;-0.73;78.72
65666;BME280;52365;47.464;18.976;2022-12-20T00:09:40;101626.78;;;-0.71;78.89
65666;BME280;52365;47.464;18.976;2022-12-20T00:10:16;101628.12;;;-0.53;78.73
65666;BME280;52365;47.464;18.976;2022-12-20T00:10:52;101625.00;;;-0.42;78.53
65666;BME280;52365;47.464;18.976;2022-12-20T00:11:28;101638.50;;;-0.47;78.52
65666;BME280;52365;47.464;18.976;2022-12-20T00:12:05;101631.62;;;-0.48;78.41
65666;BME280;52365;47.464;18.976;2022-12-20T00:12:41;101634.63;;;-0.50;78.47
65666;BME280;52365;47.464;18.976;2022-12-20T00:13:17;101637.25;;;-0.50;78.29
65666;BME280;52365;47.464;18.976;2022-12-20T00:13:53;101630.09;;;-0.37;78.19
65666;BME280;52365;47.464;18.976;2022-12-20T00:14:29;101632.38;;;-0.23;77.84
65666;BME280;52365;47.464;18.976;2022-12-20T00:15:06;101631.06;;;-0.30;77.60
65666;BME280;52365;47.464;18.976;2022-12-20T00:15:42;101638.59;;;-0.44;77.91
65666;BME280;52365;47.464;18.976;2022-12-20T00:16:20;101633.19;;;-0.47;77.96
65666;BME280;52365;47.464;18.976;2022-12-20T00:16:56;101618.84;;;-0.46;78.00
65666;BME280;52365;47.464;18.976;2022-12-20T00:17:32;101626.56;;;-0.29;77.84
65666;BME280;52365;47.464;18.976;2022-12-20T00:18:11;101624.78;;;-0.25;77.67
65666;BME280;52365;47.464;18.976;2022-12-20T00:18:53;101623.00;;;-0.21;77.68
65666;BME280;52365;47.464;18.976;2022-12-20T00:19:30;101624.28;;;0.10;77.23
65666;BME280;52365;47.464;18.976;2022-12-20T00:20:06;101627.72;;;-0.14;77.15
65666;BME280;52365;47.464;18.976;2022-12-20T00:20:42;101627.53;;;-0.34;77.35
65666;BME280;52365;47.464;18.976;2022-12-20T00:21:19;101628.09;;;-0.40;77.31
65666;BME280;52365;47.464;18.976;2022-12-20T00:21:55;101628.97;;;-0.48;77.57
65666;BME280;52365;47.464;18.976;2022-12-20T00:22:31;101626.78;;;-0.46;77.70
65666;BME280;52365;47.464;18.976;2022-12-20T00:23:07;101637.25;;;-0.50;77.76
65666;BME280;52365;47.464;18.976;2022-12-20T00:23:43;101632.06;;;-0.59;78.06
65666;BME280;52365;47.464;18.976;2022-12-20T00:24:19;101640.78;;;-0.58;78.12
65666;BME280;52365;47.464;18.976;2022-12-20T00:24:55;101633.31;;;-0.56;78.34
65666;BME280;52365;47.464;18.976;2022-12-20T00:25:31;101638.78;;;-0.12;77.86
65666;BME280;52365;47.464;18.976;2022-12-20T00:26:11;101633.50;;;-0.24;77.64
65666;BME280;52365;47.464;18.976;2022-12-20T00:26:48;101635.78;;;-0.11;77.41
65666;BME280;52365;47.464;18.976;2022-12-20T00:27:25;101633.00;;;0.38;76.47
65666;BME280;52365;47.464;18.976;2022-12-20T00:28:01;101622.44;;;0.26;75.69
65666;BME280;52365;47.464;18.976;2022-12-20T00:28:40;101621.19;;;-0.05;75.77
65666;BME280;52365;47.464;18.976;2022-12-20T00:29:16;101622.66;;;-0.19;76.32
65666;BME280;52365;47.464;18.976;2022-12-20T00:29:52;101617.38;;;-0.32;76.57
65666;BME280;52365;47.464;18.976;2022-12-20T00:30:28;101619.25;;;-0.32;76.87
65666;BME280;52365;47.464;18.976;2022-12-20T00:31:05;101606.69;;;-0.47;77.23
65666;BME280;52365;47.464;18.976;2022-12-20T00:31:41;101608.88;;;-0.25;77.24
65666;BME280;52365;47.464;18.976;2022-12-20T00:32:17;101617.59;;;-0.24;76.90
65666;BME280;52365;47.464;18.976;2022-12-20T00:32:53;101611.56;;;0.03;76.59
65666;BME280;52365;47.464;18.976;2022-12-20T00:33:29;101608.88;;;-0.13;76.31
65666;BME280;52365;47.464;18.976;2022-12-20T00:34:05;101612.78;;;-0.47;76.89
65666;BME280;52365;47.464;18.976;2022-12-20T00:34:42;101618.72;;;-0.50;77.51
65666;BME280;52365;47.464;18.976;2022-12-20T00:35:18;101606.81;;;-0.44;77.61
65666;BME280;52365;47.464;18.976;2022-12-20T00:35:55;101621.25;;;-0.41;77.58
65666;BME280;52365;47.464;18.976;2022-12-20T00:36:32;101616.06;;;-0.38;77.75
65666;BME280;52365;47.464;18.976;2022-12-20T00:37:08;101616.84;;;-0.25;77.62
65666;BME280;52365;47.464;18.976;2022-12-20T00:37:44;101614.47;;;-0.14;77.10
65666;BME280;52365;47.464;18.976;2022-12-20T00:38:20;101611.94;;;-0.11;77.01
65666;BME280;52365;47.464;18.976;2022-12-20T00:38:57;101609.13;;;-0.30;76.93
65666;BME280;52365;47.464;18.976;2022-12-20T00:39:34;101609.66;;;-0.37;77.18
65666;BME280;52365;47.464;18.976;2022-12-20T00:40:10;101607.47;;;-0.59;77.49
65666;BME280;52365;47.464;18.976;2022-12-20T00:40:46;101605.69;;;-0.31;77.45
65666;BME280;52365;47.464;18.976;2022-12-20T00:41:32;101613.06;;;-0.36;77.30
65666;BME280;52365;47.464;18.976;2022-12-20T00:42:08;101612.78;;;-0.59;77.91
65666;BME280;52365;47.464;18.976;2022-12-20T00:42:44;101607.81;;;-0.61;78.16
65666;BME280;52365;47.464;18.976;2022-12-20T00:43:20;101609.91;;;-0.42;77.96
65666;BME280;52365;47.464;18.976;2022-12-20T00:43:57;101611.66;;;-0.58;77.84
65666;BME280;52365;47.464;18.976;2022-12-20T00:44:33;101611.22;;;-0.48;78.04
65666;BME280;52365;47.464;18.976;2022-12-20T00:45:09;101608.03;;;-0.66;78.18
65666;BME280;52365;47.464;18.976;2022-12-20T00:45:45;101605.06;;;-0.52;78.08
65666;BME280;52365;47.464;18.976;2022-12-20T00:46:22;101601.19;;;-0.42;77.92
65666;BME280;52365;47.464;18.976;2022-12-20T00:46:59;101598.66;;;-0.51;77.85
65666;BME280;52365;47.464;18.976;2022-12-20T00:47:35;101606.13;;;-0.41;77.73
65666;BME280;52365;47.464;18.976;2022-12-20T00:48:11;101597.56;;;-0.10;77.29
65666;BME280;52365;47.464;18.976;2022-12-20T00:48:47;101599.94;;;-0.20;76.88
65666;BME280;52365;47.464;18.976;2022-12-20T00:49:23;101596.41;;;-0.37;76.90
65666;BME280;52365;47.464;18.976;2022-12-20T00:49:59;101589.72;;;-0.59;77.34
65666;BME280;52365;47.464;18.976;2022-12-20T00:50:35;101594.97;;;-0.22;77.32
65666;BME280;52365;47.464;18.976;2022-12-20T00:51:17;101593.28;;;-0.14;76.97
65666;BME280;52365;47.464;18.976;2022-12-20T00:51:54;101591.19;;;-0.09;76.27
65666;BME280;52365;47.464;18.976;2022-12-20T00:52:30;101595.66;;;0.03;76.15
65666;BME280;52365;47.464;18.976;2022-12-20T00:53:06;101596.19;;;0.09;75.77
65666;BME280;52365;47.464;18.976;2022-12-20T00:53:44;101594.19;;;0.18;75.45
65666;BME280;52365;47.464;18.976;2022-12-20T00:54:20;101584.69;;;-0.23;76.03
65666;BME280;52365;47.464;18.976;2022-12-20T00:54:56;101586.47;;;-0.28;76.14
65666;BME280;52365;47.464;18.976;2022-12-20T00:55:32;101578.09;;;-0.42;76.31
65666;BME280;52365;47.464;18.976;2022-12-20T00:56:09;101579.88;;;-0.58;76.80
65666;BME280;52365;47.464;18.976;2022-12-20T00:56:45;101586.53;;;-0.64;77.26
65666;BME280;52365;47.464;18.976;2022-12-20T00:57:21;101587.28;;;-0.39;77.14
65666;BME280;52365;47.464;18.976;2022-12-20T00:57:57;101583.88;;;-0.52;77.42
65666;BME280;52365;47.464;18.976;2022-12-20T00:58:36;101581.41;;;-0.45;77.40
65666;BME280;52365;47.464;18.976;2022-12-20T00:59:13;101580.16;;;-0.23;76.92
65666;BME280;52365;47.464;18.976;2022-12-20T00:59:49;101577.81;;;0.00;76.36
65666;BME280;52365;47.464;18.976;2022-12-20T01:00:25;101591.00;;;0.12;75.76
65666;BME280;52365;47.464;18.976;2022-12-20T01:01:01;101586.03;;;-0.17;75.82
65666;BME280;52365;47.464;18.976;2022-12-20T01:01:38;101581.31;;;-0.48;76.35
65666;BME280;52365;47.464;18.976;2022-12-20T01:02:14;101577.88;;;-0.49;76.68
65666;BME280;52365;47.464;18.976;2022-12-20T01:02:50;101578.66;;;-0.48;77.04
65666;BME280;52365;47.464;18.976;2022-12-20T01:03:26;101582.75;;;-0.51;77.35
65666;BME280;52365;47.464;18.976;2022-12-20T01:04:03;101581.16;;;-0.28;77.22
65666;BME280;52365;47.464;18.976;2022-12-20T01:04:39;101583.16;;;-0.24;76.90
65666;BME280;52365;47.464;18.976;2022-12-20T01:05:15;101578.25;;;-0.10;76.48
65666;BME280;52365;47.464;18.976;2022-12-20T01:05:53;101580.34;;;-0.04;76.07
65666;BME280;52365;47.464;18.976;2022-12-20T01:06:30;101585.00;;;-0.13;76.06
65666;BME280;52365;47.464;18.976;2022-12-20T01:07:06;101581.84;;;-0.31;76.25
65666;BME280;52365;47.464;18.976;2022-12-20T01:07:42;101573.41;;;-0.08;76.36
65666;BME280;52365;47.464;18.976;2022-12-20T01:08:19;101582.81;;;-0.35;76.22
65666;BME280;52365;47.464;18.976;2022-12-20T01:08:56;101585.63;;;-0.56;76.69
65666;BME280;52365;47.464;18.976;2022-12-20T01:09:32;101583.19;;;-0.49;76.90
65666;BME280;52365;47.464;18.976;2022-12-20T01:10:08;101581.16;;;-0.28;76.69
65666;BME280;52365;47.464;18.976;2022-12-20T01:10:45;101569.37;;;-0.30;76.69
65666;BME280;52365;47.464;18.976;2022-12-20T01:11:23;101569.25;;;-0.21;76.47
65666;BME280;52365;47.464;18.976;2022-12-20T01:12:00;101570.44;;;-0.19;75.97
65666;BME280;52365;47.464;18.976;2022-12-20T01:12:36;101576.00;;;0.04;75.88
65666;BME280;52365;47.464;18.976;2022-12-20T01:13:12;101577.38;;;-0.14;75.63
65666;BME280;52365;47.464;18.976;2022-12-20T01:13:51;101573.72;;;-0.10;75.72
65666;BME280;52365;47.464;18.976;2022-12-20T01:14:27;101572.66;;;-0.21;75.58
65666;BME280;52365;47.464;18.976;2022-12-20T01:15:03;101576.22;;;-0.41;75.94
65666;BME280;52365;47.464;18.976;2022-12-20T01:15:40;101580.34;;;-0.56;76.56
65666;BME280;52365;47.464;18.976;2022-12-20T01:16:52;101564.19;;;-0.39;76.95
65666;BME280;52365;47.464;18.976;2022-12-20T01:17:28;101569.66;;;-0.19;76.72
65666;BME280;52365;47.464;18.976;2022-12-20T01:18:04;101568.50;;;-0.46;76.67
65666;BME280;52365;47.464;18.976;2022-12-20T01:18:41;101569.50;;;-0.51;76.98
65666;BME280;52365;47.464;18.976;2022-12-20T01:19:17;101572.78;;;-0.17;76.74
65666;BME280;52365;47.464;18.976;2022-12-20T01:19:54;101572.66;;;-0.21;76.23
65666;BME280;52365;47.464;18.976;2022-12-20T01:20:30;101575.69;;;-0.35;76.28
65666;BME280;52365;47.464;18.976;2022-12-20T01:21:08;101577.97;;;-0.21;76.30
65666;BME280;52365;47.464;18.976;2022-12-20T01:21:45;101581.66;;;0.03;75.76
65666;BME280;52365;47.464;18.976;2022-12-20T01:22:21;101586.47;;;-0.40;76.10
65666;BME280;52365;47.464;18.976;2022-12-20T01:22:57;101589.13;;;-0.28;76.26
65666;BME280;52365;47.464;18.976;2022-12-20T01:23:34;101592.87;;;-0.29;75.94
65666;BME280;52365;47.464;18.976;2022-12-20T01:24:15;101579.34;;;-0.64;76.65
65666;BME280;52365;47.464;18.976;2022-12-20T01:24:51;101574.47;;;-0.37;76.77
65666;BME280;52365;47.464;18.976;2022-12-20T01:25:27;101569.94;;;-0.37;76.66
65666;BME280;52365;47.464;18.976;2022-12-20T01:26:05;101572.28;;;-0.47;76.82
65666;BME280;52365;47.464;18.976;2022-12-20T01:26:44;101563.88;;;-0.37;76.91
65666;BME280;52365;47.464;18.976;2022-12-20T01:27:20;101567.25;;;-0.24;76.65
65666;BME280;52365;47.464;18.976;2022-12-20T01:27:56;101570.81;;;0.08;76.05
65666;BME280;52365;47.464;18.976;2022-12-20T01:28:32;101573.09;;;-0.19;75.73
65666;BME280;52365;47.464;18.976;2022-12-20T01:29:09;101568.91;;;-0.20;76.00
65666;BME280;52365;47.464;18.976;2022-12-20T01:29:45;101560.00;;;-0.40;76.25
65666;BME280;52365;47.464;18.976;2022-12-20T01:30:21;101564.84;;;-0.30;76.30
65666;BME280;52365;47.464;18.976;2022-12-20T01:30:57;101555.78;;;-0.29;76.08
65666;BME280;52365;47.464;18.976;2022-12-20T01:31:33;101562.44;;;-0.35;76.22
65666;BME280;52365;47.464;18.976;2022-12-20T01:32:09;101559.44;;;-0.33;76.27
65666;BME280;52365;47.464;18.976;2022-12-20T01:32:45;101557.12;;;-0.35;76.18
65666;BME280;52365;47.464;18.976;2022-12-20T01:33:22;101555.91;;;-0.25;76.20
65666;BME280;52365;47.464;18.976;2022-12-20T01:33:59;101556.69;;;-0.37;76.50
65666;BME280;52365;47.464;18.976;2022-12-20T01:34:35;101554.00;;;-0.24;76.48
65666;BME280;52365;47.464;18.976;2022-12-20T01:35:11;101559.09;;;-0.32;76.05
65666;BME280;52365;47.464;18.976;2022-12-20T01:35:55;101561.34;;;-0.46;76.50
65666;BME280;52365;47.464;18.976;2022-12-20T01:36:34;101566.09;;;-0.52;76.87
65666;BME280;52365;47.464;18.976;2022-12-20T01:37:11;101549.53;;;-0.48;76.87
65666;BME280;52365;47.464;18.976;2022-12-20T01:37:47;101553.84;;;-0.44;76.95
65666;BME280;52365;47.464;18.976;2022-12-20T01:38:24;101551.00;;;-0.11;76.48
65666;BME280;52365;47.464;18.976;2022-12-20T01:39:10;101554.22;;;-0.17;76.10
65666;BME280;52365;47.464;18.976;2022-12-20T01:39:46;101553.53;;;-0.14;76.10
65666;BME280;52365;47.464;18.976;2022-12-20T01:40:22;101547.84;;;-0.41;76.17
65666;BME280;52365;47.464;18.976;2022-12-20T01:40:59;101543.19;;;-0.19;76.08
65666;BME280;52365;47.464;18.976;2022-12-20T01:41:36;101549.06;;;-0.26;75.90
65666;BME280;52365;47.464;18.976;2022-12-20T01:42:13;101548.50;;;-0.32;76.06
65666;BME280;52365;47.464;18.976;2022-12-20T01:42:49;101548.47;;;-0.19;75.96
65666;BME280;52365;47.464;18.976;2022-12-20T01:44:58;101535.84;;;-0.38;76.14
65666;BME280;52365;47.464;18.976;2022-12-20T01:45:34;101534.31;;;-0.39;76.19
65666;BME280;52365;47.464;18.976;2022-12-20T01:46:11;101530.34;;;-0.58;76.73
65666;BME280;52365;47.464;18.976;2022-12-20T01:46:48;101528.28;;;-0.24;76.37
65666;BME280;52365;47.464;18.976;2022-12-20T01:47:25;101536.97;;;0.17;75.84
65666;BME280;52365;47.464;18.976;2022-12-20T01:48:04;101535.06;;;-0.39;75.88
65666;BME280;52365;47.464;18.976;2022-12-20T01:48:43;101538.53;;;-0.22;76.16
65666;BME280;52365;47.464;18.976;2022-12-20T01:49:34;101533.09;;;-0.14;75.73
65666;BME280;52365;47.464;18.976;2022-12-20T01:50:14;101528.41;;;-0.33;75.98
65666;BME280;52365;47.464;18.976;2022-12-20T01:50:50;101530.31;;;-0.33;76.12
65666;BME280;52365;47.464;18.976;2022-12-20T01:51:28;101541.53;;;-0.24;76.10
65666;BME280;52365;47.464;18.976;2022-12-20T01:52:10;101531.31;;;-0.50;76.19
65666;BME280;52365;47.464;18.976;2022-12-20T01:52:48;101530.91;;;-0.52;76.66
65666;BME280;52365;47.464;18.976;2022-12-20T01:53:24;101527.53;;;-0.37;76.44
65666;BME280;52365;47.464;18.976;2022-12-20T01:54:05;101520.50;;;-0.45;76.53
65666;BME280;52365;47.464;18.976;2022-12-20T01:54:59;101528.56;;;-0.41;76.63
65666;BME280;52365;47.464;18.976;2022-12-20T01:55:37;101528.37;;;-0.20;76.36
65666;BME280;52365;47.464;18.976;2022-12-20T01:56:13;101524.00;;;-0.29;76.00
65666;BME280;52365;47.464;18.976;2022-12-20T01:56:53;101520.91;;;0.25;75.62
65666;BME280;52365;47.464;18.976;2022-12-20T01:57:37;101515.81;;;-0.23;75.39
65666;BME280;52365;47.464;18.976;2022-12-20T01:58:17;101518.47;;;0.05;75.14
65666;BME280;52365;47.464;18.976;2022-12-20T01:58:54;101508.09;;;0.28;74.56
65666;BME280;52365;47.464;18.976;2022-12-20T01:59:34;101502.88;;;-0.13;74.83
65666;BME280;52365;47.464;18.976;2022-12-20T02:00:13;101501.63;;;-0.43;75.49
65666;BME280;52365;47.464;18.976;2022-12-20T02:00:49;101505.81;;;-0.42;76.04
65666;BME280;52365;47.464;18.976;2022-12-20T02:01:25;101508.75;;;-0.32;76.04
65666;BME280;52365;47.464;18.976;2022-12-20T02:02:04;101497.56;;;-0.13;75.84
65666;BME280;52365;47.464;18.976;2022-12-20T02:02:44;101496.38;;;0.29;75.01
65666;BME280;52365;47.464;18.976;2022-12-20T02:03:22;101509.28;;;0.30;74.12
65666;BME280;52365;47.464;18.976;2022-12-20T02:03:58;101506.66;;;-0.26;74.97
65666;BME280;52365;47.464;18.976;2022-12-20T02:04:34;101497.78;;;-0.18;75.05
65666;BME280;52365;47.464;18.976;2022-12-20T02:05:10;101503.19;;;0.14;75.00
65666;BME280;52365;47.464;18.976;2022-12-20T02:05:49;101488.31;;;0.09;74.86
65666;BME280;52365;47.464;18.976;2022-12-20T02:06:26;101489.78;;;0.22;74.52
65666;BME280;52365;47.464;18.976;2022-12-20T02:07:04;101500.28;;;0.19;74.22
65666;BME280;52365;47.464;18.976;2022-12-20T02:07:42;101494.22;;;-0.10;74.76
65666;BME280;52365;47.464;18.976;2022-12-20T02:08:19;101489.47;;;-0.04;74.75
65666;BME280;52365;47.464;18.976;2022-12-20T02:08:57;101492.31;;;-0.25;75.06
65666;BME280;52365;47.464;18.976;2022-12-20T02:09:36;101500.78;;;-0.19;75.32
65666;BME280;52365;47.464;18.976;2022-12-20T02:10:13;101492.28;;;0.03;75.15
65666;BME280;52365;47.464;18.976;2022-12-20T02:12:16;101492.31;;;-0.65;75.85
65666;BME280;52365;47.464;18.976;2022-12-20T02:13:04;101497.41;;;-0.32;76.29
65666;BME280;52365;47.464;18.976;2022-12-20T02:15:04;101491.31;;;0.39;74.46
65666;BME280;52365;47.464;18.976;2022-12-20T02:15:53;101489.59;;;0.79;73.15
65666;BME280;52365;47.464;18.976;2022-12-20T02:16:35;101484.91;;;0.56;72.22
65666;BME280;52365;47.464;18.976;2022-12-20T02:19:03;101488.69;;;-0.33;74.88
65666;BME280;52365;47.464;18.976;2022-12-20T02:20:00;101484.78;;;-0.23;75.57
65666;BME280;52365;47.464;18.976;2022-12-20T02:21:13;101474.66;;;-0.61;76.11
65666;BME280;52365;47.464;18.976;2022-12-20T02:22:04;101479.53;;;-0.35;76.25
65666;BME280;52365;47.464;18.976;2022-12-20T02:27:47;101487.47;;;-0.35;75.63
65666;BME280;52365;47.464;18.976;2022-12-20T02:29:36;101492.03;;;0.08;75.66
65666;BME280;52365;47.464;18.976;2022-12-20T02:30:16;101490.00;;;0.02;74.87
65666;BME280;52365;47.464;18.976;2022-12-20T02:30:54;101485.91;;;-0.24;74.96
65666;BME280;52365;47.464;18.976;2022-12-20T02:31:47;101487.28;;;-0.42;75.36
65666;BME280;52365;47.464;18.976;2022-12-20T02:33:10;101493.06;;;-0.24;75.69
65666;BME280;52365;47.464;18.976;2022-12-20T02:33:47;101489.31;;;-0.23;75.71
65666;BME280;52365;47.464;18.976;2022-12-20T02:34:25;101486.81;;;-0.04;75.08
65666;BME280;52365;47.464;18.976;2022-12-20T02:35:04;101487.44;;;-0.23;75.22
65666;BME280;52365;47.464;18.976;2022-12-20T02:35:41;101496.09;;;-0.38;75.53
65666;BME280;52365;47.464;18.976;2022-12-20T02:36:17;101493.59;;;-0.19;75.26
65666;BME280;52365;47.464;18.976;2022-12-20T02:36:53;101490.81;;;-0.10;75.30
65666;BME280;52365;47.464;18.976;2022-12-20T02:37:29;101490.38;;;-0.12;75.24
65666;BME280;52365;47.464;18.976;2022-12-20T02:39:00;101484.06;;;-0.36;75.78
65666;BME280;52365;47.464;18.976;2022-12-20T02:39:39;101486.09;;;-0.57;76.22
65666;BME280;52365;47.464;18.976;2022-12-20T02:40:19;101483.25;;;-0.64;76.48
65666;BME280;52365;47.464;18.976;2022-12-20T02:41:03;101476.63;;;-0.70;76.94
65666;BME280;52365;47.464;18.976;2022-12-20T02:41:51;101481.56;;;-0.16;76.51
65666;BME280;52365;47.464;18.976;2022-12-20T02:42:28;101490.84;;;0.06;75.54
65666;BME280;52365;47.464;18.976;2022-12-20T02:43:09;101482.91;;;0.21;74.98
65666;BME280;52365;47.464;18.976;2022-12-20T02:44:08;101474.06;;;-0.27;74.87
65666;BME280;52365;47.464;18.976;2022-12-20T02:45:07;101481.13;;;-0.18;75.15
65666;BME280;52365;47.464;18.976;2022-12-20T02:45:51;101481.41;;;-0.36;75.21
65666;BME280;52365;47.464;18.976;2022-12-20T02:46:28;101474.53;;;-0.65;76.10
65666;BME280;52365;47.464;18.976;2022-12-20T02:47:08;101474.91;;;-0.79;76.59
65666;BME280;52365;47.464;18.976;2022-12-20T02:48:29;101484.03;;;-0.76;77.17
65666;BME280;52365;47.464;18.976;2022-12-20T02:49:13;101475.84;;;-0.59;77.37
65666;BME280;52365;47.464;18.976;2022-12-20T02:49:50;101486.41;;;-0.18;76.71
65666;BME280;52365;47.464;18.976;2022-12-20T02:50:35;101474.03;;;-0.83;76.93
65666;BME280;52365;47.464;18.976;2022-12-20T02:51:14;101485.28;;;-0.45;76.95
65666;BME280;52365;47.464;18.976;2022-12-20T02:51:52;101485.53;;;-0.51;76.75
65666;BME280;52365;47.464;18.976;2022-12-20T02:52:30;101490.56;;;-0.33;76.57
65666;BME280;52365;47.464;18.976;2022-12-20T02:53:08;101483.72;;;-0.06;76.18
65666;BME280;52365;47.464;18.976;2022-12-20T02:53:44;101481.22;;;-0.43;76.15
65666;BME280;52365;47.464;18.976;2022-12-20T02:54:20;101480.69;;;-0.20;76.05
65666;BME280;52365;47.464;18.976;2022-12-20T02:54:57;101475.44;;;-0.33;75.86
65666;BME280;52365;47.464;18.976;2022-12-20T02:55:48;101477.50;;;-0.66;76.48
65666;BME280;52365;47.464;18.976;2022-12-20T02:56:39;101472.25;;;-0.38;76.42
65666;BME280;52365;47.464;18.976;2022-12-20T02:57:22;101469.66;;;-0.63;76.68
65666;BME280;52365;47.464;18.976;2022-12-20T02:58:10;101467.13;;;-0.59;76.70
65666;BME280;52365;47.464;18.976;2022-12-20T02:58:57;101463.84;;;-0.68;76.91
65666;BME280;52365;47.464;18.976;2022-12-20T02:59:48;101460.97;;;-0.63;77.18
65666;BME280;52365;47.464;18.976;2022-12-20T03:00:32;101459.56;;;-0.45;76.73
65666;BME280;52365;47.464;18.976;2022-12-20T03:01:33;101460.34;;;-0.44;76.52
65666;BME280;52365;47.464;18.976;2022-12-20T03:02:11;101456.69;;;-0.12;76.03
65666;BME280;52365;47.464;18.976;2022-12-20T03:02:49;101455.78;;;-0.32;75.95
65666;BME280;52365;47.464;18.976;2022-12-20T03:03:44;101453.16;;;-0.72;76.28
65666;BME280;52365;47.464;18.976;2022-12-20T03:04:23;101454.91;;;-0.76;77.17
65666;BME280;52365;47.464;18.976;2022-12-20T03:05:01;101458.00;;;-0.34;77.00
65666;BME280;52365;47.464;18.976;2022-12-20T03:05:43;101455.03;;;-0.04;76.08
65666;BME280;52365;47.464;18.976;2022-12-20T03:06:20;101445.38;;;-0.24;75.72
65666;BME280;52365;47.464;18.976;2022-12-20T03:07:33;101443.69;;;-0.17;75.26
65666;BME280;52365;47.464;18.976;2022-12-20T03:08:09;101451.91;;;-0.06;75.23
65666;BME280;52365;47.464;18.976;2022-12-20T03:08:46;101457.22;;;-0.06;74.94
65666;BME280;52365;47.464;18.976;2022-12-20T03:09:22;101452.03;;;-0.03;75.00
65666;BME280;52365;47.464;18.976;2022-12-20T03:09:58;101463.16;;;-0.25;74.94
65666;BME280;52365;47.464;18.976;2022-12-20T03:10:34;101463.47;;;-0.55;75.71
65666;BME280;52365;47.464;18.976;2022-12-20T03:11:10;101461.97;;;-0.40;76.05
65666;BME280;52365;47.464;18.976;2022-12-20T03:11:46;101465.28;;;-0.03;75.69
65666;BME280;52365;47.464;18.976;2022-12-20T03:12:22;101464.66;;;0.04;75.17
65666;BME280;52365;47.464;18.976;2022-12-20T03:12:58;101460.87;;;-0.11;75.11
65666;BME280;52365;47.464;18.976;2022-12-20T03:13:34;101455.75;;;-0.47;75.56
65666;BME280;52365;47.464;18.976;2022-12-20T03:14:10;101455.34;;;-0.34;75.70
65666;BME280;52365;47.464;18.976;2022-12-20T03:14:46;101457.34;;;-0.31;75.58
65666;BME280;52365;47.464;18.976;2022-12-20T03:15:22;101447.78;;;-0.19;75.64
65666;BME280;52365;47.464;18.976;2022-12-20T03:15:58;101452.03;;;-0.03;75.41
65666;BME280;52365;47.464;18.976;2022-12-20T03:16:34;101451.09;;;0.21;74.61
65666;BME280;52365;47.464;18.976;2022-12-20T03:17:11;101447.84;;;-0.32;75.08
65666;BME280;52365;47.464;18.976;2022-12-20T03:17:47;101447.59;;;0.02;75.18
65666;BME280;52365;47.464;18.976;2022-12-20T03:18:23;101456.16;;;0.27;74.62
65666;BME280;52365;47.464;18.976;2022-12-20T03:18:59;101449.69;;;0.40;73.52
65666;BME280;52365;47.464;18.976;2022-12-20T03:19:35;101450.94;;;0.14;73.29
65666;BME280;52365;47.464;18.976;2022-12-20T03:20:11;101444.88;;;0.14;73.65
65666;BME280;52365;47.464;18.976;2022-12-20T03:20:48;101451.97;;;0.25;73.61
65666;BME280;52365;47.464;18.976;2022-12-20T03:21:24;101454.78;;;0.33;73.10
65666;BME280;52365;47.464;18.976;2022-12-20T03:22:00;101453.03;;;-0.07;73.67
65666;BME280;52365;47.464;18.976;2022-12-20T03:22:36;101447.13;;;-0.01;73.96
65666;BME280;52365;47.464;18.976;2022-12-20T03:23:13;101456.06;;;-0.49;74.58
65666;BME280;52365;47.464;18.976;2022-12-20T03:23:49;101450.00;;;-0.49;75.48
65666;BME280;52365;47.464;18.976;2022-12-20T03:24:25;101446.59;;;-0.50;75.67
65666;BME280;52365;47.464;18.976;2022-12-20T03:25:01;101440.00;;;-0.56;76.10
65666;BME280;52365;47.464;18.976;2022-12-20T03:25:37;101435.69;;;-0.33;75.94
65666;BME280;52365;47.464;18.976;2022-12-20T03:26:13;101441.91;;;-0.13;75.53
65666;BME280;52365;47.464;18.976;2022-12-20T03:26:49;101435.06;;;-0.14;75.14
65666;BME280;52365;47.464;18.976;2022-12-20T03:27:25;101434.03;;;-0.25;75.04
65666;BME280;52365;47.464;18.976;2022-12-20T03:28:04;101441.06;;;-0.17;75.19
65666;BME280;52365;47.464;18.976;2022-12-20T03:28:40;101442.63;;;0.00;74.64
65666;BME280;52365;47.464;18.976;2022-12-20T03:29:17;101442.34;;;-0.39;75.41
65666;BME280;52365;47.464;18.976;2022-12-20T03:29:54;101443.63;;;-0.05;75.11
65666;BME280;52365;47.464;18.976;2022-12-20T03:30:30;101435.62;;;0.23;74.28
65666;BME280;52365;47.464;18.976;2022-12-20T03:31:06;101441.75;;;-0.04;74.39
65666;BME280;52365;47.464;18.976;2022-12-20T03:31:42;101436.06;;;-0.34;74.52
65666;BME280;52365;47.464;18.976;2022-12-20T03:32:19;101432.88;;;-0.80;75.78
65666;BME280;52365;47.464;18.976;2022-12-20T03:32:56;101438.00;;;-0.59;76.12